createdAt,value
2016-09-06T00:00:15.396Z,0
2016-09-06T00:01:15.369Z,0
2016-09-06T00:02:15.353Z,0
2016-09-06T00:03:15.332Z,0
2016-09-06T00:04:15.310Z,0
2016-09-06T00:05:15.283Z,0
2016-09-06T00:06:15.270Z,0
2016-09-06T00:07:15.239Z,0
2016-09-06T00:08:15.222Z,0
2016-09-06T00:09:15.197Z,0
2016-09-06T00:10:15.176Z,0
2016-09-06T00:11:15.158Z,0
2016-09-06T00:12:15.138Z,0
2016-09-06T00:13:15.116Z,0
2016-09-06T00:14:15.102Z,0
2016-09-06T00:15:15.073Z,0
2016-09-06T00:16:15.048Z,0
2016-09-06T00:17:15.031Z,0
2016-09-06T00:18:15.015Z,0
2016-09-06T00:19:14.989Z,0
2016-09-06T00:20:14.964Z,0
2016-09-06T00:21:14.941Z,0
2016-09-06T00:22:14.919Z,0
2016-09-06T00:23:14.906Z,0
2016-09-06T00:24:14.882Z,0
2016-09-06T00:25:14.857Z,0
2016-09-06T00:26:14.840Z,0
2016-09-06T00:27:14.813Z,0
2016-09-06T00:28:14.788Z,0
2016-09-06T00:29:14.768Z,0
2016-09-06T00:30:14.747Z,0
2016-09-06T00:31:14.729Z,0
2016-09-06T00:32:14.697Z,0
2016-09-06T00:33:14.680Z,0
2016-09-06T00:34:14.654Z,0
2016-09-06T00:35:14.641Z,0
2016-09-06T00:36:14.613Z,0
2016-09-06T00:37:14.594Z,0
2016-09-06T00:38:14.566Z,0
2016-09-06T00:39:14.551Z,0
2016-09-06T00:40:14.521Z,0
2016-09-06T00:41:14.505Z,0
2016-09-06T00:42:14.482Z,0
2016-09-06T00:43:14.760Z,0
2016-09-06T00:44:14.436Z,0
2016-09-06T00:45:14.419Z,0
2016-09-06T00:46:14.413Z,0
2016-09-06T00:47:14.379Z,0
2016-09-06T00:48:14.362Z,0
2016-09-06T00:49:14.330Z,0
2016-09-06T00:50:14.302Z,0
2016-09-06T00:51:14.287Z,0
2016-09-06T00:52:14.259Z,0
2016-09-06T00:53:14.242Z,0
2016-09-06T00:54:14.214Z,0
2016-09-06T00:55:14.197Z,0
2016-09-06T00:56:14.175Z,0
2016-09-06T00:57:14.153Z,0
2016-09-06T00:58:14.128Z,0
2016-09-06T00:59:14.111Z,0
2016-09-06T01:00:14.086Z,0
2016-09-06T01:01:14.068Z,0
2016-09-06T01:02:14.341Z,0
2016-09-06T01:03:14.021Z,0
2016-09-06T01:04:14.004Z,0
2016-09-06T01:05:13.978Z,0
2016-09-06T01:06:13.951Z,0
2016-09-06T01:07:13.935Z,0
2016-09-06T01:08:13.920Z,0
2016-09-06T01:09:13.889Z,0
2016-09-06T01:10:13.866Z,0
2016-09-06T01:11:13.848Z,0
2016-09-06T01:12:13.823Z,0
2016-09-06T01:13:13.807Z,0
2016-09-06T01:14:13.778Z,0
2016-09-06T01:15:13.758Z,0
2016-09-06T01:16:13.746Z,0
2016-09-06T01:17:13.714Z,0
2016-09-06T01:18:13.693Z,0
2016-09-06T01:19:13.671Z,0
2016-09-06T01:20:13.647Z,0
2016-09-06T01:21:13.633Z,0
2016-09-06T01:22:13.618Z,0
2016-09-06T01:23:13.578Z,0
2016-09-06T01:24:13.559Z,0
2016-09-06T01:25:13.537Z,0
2016-09-06T01:26:13.527Z,0
2016-09-06T01:27:13.497Z,0
2016-09-06T01:28:13.471Z,0
2016-09-06T01:29:13.492Z,0
2016-09-06T01:30:13.430Z,0
2016-09-06T01:31:13.400Z,0
2016-09-06T01:32:13.382Z,0
2016-09-06T01:33:13.356Z,0
2016-09-06T01:34:13.338Z,0
2016-09-06T01:35:13.333Z,0
2016-09-06T01:36:13.293Z,0
2016-09-06T01:37:13.272Z,0
2016-09-06T01:38:13.249Z,0
2016-09-06T01:39:13.227Z,0
2016-09-06T01:40:13.205Z,0
2016-09-06T01:41:13.182Z,0
2016-09-06T01:42:13.457Z,0
2016-09-06T01:43:13.139Z,0
2016-09-06T01:44:13.125Z,0
2016-09-06T01:45:13.094Z,0
2016-09-06T01:46:13.071Z,0
2016-09-06T01:47:13.050Z,0
2016-09-06T01:48:13.034Z,0
2016-09-06T01:49:13.022Z,0
2016-09-06T01:50:12.988Z,0
2016-09-06T01:51:12.965Z,0
2016-09-06T01:52:12.933Z,0
2016-09-06T01:53:12.916Z,0
2016-09-06T01:54:12.888Z,0
2016-09-06T01:55:12.873Z,0
2016-09-06T01:56:12.844Z,0
2016-09-06T01:57:12.826Z,0
2016-09-06T01:58:12.801Z,0
2016-09-06T01:59:12.796Z,0
2016-09-06T02:00:12.761Z,0
2016-09-06T02:01:12.740Z,0
2016-09-06T02:02:12.717Z,0
2016-09-06T02:03:12.697Z,0
2016-09-06T02:04:12.666Z,0
2016-09-06T02:05:12.650Z,0
2016-09-06T02:06:12.627Z,0
2016-09-06T02:07:12.609Z,0
2016-09-06T02:08:12.579Z,0
2016-09-06T02:09:12.859Z,0
2016-09-06T02:10:12.546Z,0
2016-09-06T02:11:12.515Z,0
2016-09-06T02:12:12.493Z,0
2016-09-06T02:13:12.480Z,0
2016-09-06T02:14:12.449Z,0
2016-09-06T02:15:12.424Z,0
2016-09-06T02:16:12.403Z,0
2016-09-06T02:17:12.381Z,0
2016-09-06T02:18:12.356Z,0
2016-09-06T02:19:12.340Z,0
2016-09-06T02:20:12.333Z,0
2016-09-06T02:21:12.289Z,0
2016-09-06T02:22:12.281Z,0
2016-09-06T02:23:12.247Z,0
2016-09-06T02:24:12.224Z,0
2016-09-06T02:25:12.202Z,0
2016-09-06T02:26:12.190Z,0
2016-09-06T02:27:12.158Z,0
2016-09-06T02:28:12.134Z,0
2016-09-06T02:29:12.112Z,0
2016-09-06T02:30:12.090Z,0
2016-09-06T02:31:12.065Z,0
2016-09-06T02:32:12.043Z,0
2016-09-06T02:33:12.024Z,0
2016-09-06T02:34:11.999Z,0
2016-09-06T02:35:11.980Z,0
2016-09-06T02:36:11.954Z,0
2016-09-06T02:37:11.931Z,0
2016-09-06T02:38:11.910Z,0
2016-09-06T02:39:11.886Z,0
2016-09-06T02:40:11.865Z,0
2016-09-06T02:41:11.840Z,0
2016-09-06T02:42:11.818Z,0
2016-09-06T02:43:11.801Z,0
2016-09-06T02:44:11.778Z,0
2016-09-06T02:45:11.751Z,0
2016-09-06T02:46:11.728Z,0
2016-09-06T02:47:11.704Z,0
2016-09-06T02:48:11.681Z,0
2016-09-06T02:49:11.659Z,0
2016-09-06T02:50:11.639Z,0
2016-09-06T02:51:11.629Z,0
2016-09-06T02:52:11.592Z,0
2016-09-06T02:53:11.568Z,0
2016-09-06T02:54:11.547Z,0
2016-09-06T02:55:11.524Z,0
2016-09-06T02:56:11.501Z,0
2016-09-06T02:57:11.776Z,0
2016-09-06T02:58:11.449Z,0
2016-09-06T02:59:11.432Z,0
2016-09-06T03:00:11.405Z,0
2016-09-06T03:01:11.388Z,0
2016-09-06T03:02:11.359Z,0
2016-09-06T03:03:11.340Z,0
2016-09-06T03:04:11.313Z,0
2016-09-06T03:05:11.294Z,0
2016-09-06T03:06:11.270Z,0
2016-09-06T03:07:11.251Z,0
2016-09-06T03:08:11.226Z,0
2016-09-06T03:09:11.218Z,0
2016-09-06T03:10:11.180Z,0
2016-09-06T03:11:11.158Z,0
2016-09-06T03:12:11.146Z,0
2016-09-06T03:13:11.114Z,0
2016-09-06T03:14:11.096Z,0
2016-09-06T03:15:11.069Z,0
2016-09-06T03:16:11.039Z,0
2016-09-06T03:17:11.021Z,0
2016-09-06T03:18:10.994Z,0
2016-09-06T03:19:10.982Z,0
2016-09-06T03:20:10.953Z,0
2016-09-06T03:21:10.931Z,0
2016-09-06T03:22:10.902Z,0
2016-09-06T03:23:10.886Z,0
2016-09-06T03:24:10.857Z,0
2016-09-06T03:25:10.842Z,0
2016-09-06T03:26:10.811Z,0
2016-09-06T03:27:10.793Z,0
2016-09-06T03:28:10.767Z,0
2016-09-06T03:29:10.748Z,0
2016-09-06T03:30:10.721Z,0
2016-09-06T03:31:11.006Z,0
2016-09-06T03:32:10.674Z,0
2016-09-06T03:33:10.656Z,0
2016-09-06T03:34:10.629Z,0
2016-09-06T03:35:10.616Z,0
2016-09-06T03:36:10.589Z,0
2016-09-06T03:37:10.568Z,0
2016-09-06T03:38:10.539Z,0
2016-09-06T03:39:10.521Z,0
2016-09-06T03:40:10.520Z,0
2016-09-06T03:41:10.488Z,0
2016-09-06T03:42:10.447Z,0
2016-09-06T03:43:10.428Z,0
2016-09-06T03:44:10.409Z,0
2016-09-06T03:45:10.382Z,0
2016-09-06T03:46:10.357Z,0
2016-09-06T03:47:10.336Z,0
2016-09-06T03:48:10.316Z,0
2016-09-06T03:49:10.291Z,0
2016-09-06T03:50:10.265Z,0
2016-09-06T03:51:10.244Z,0
2016-09-06T03:52:10.221Z,0
2016-09-06T03:53:10.200Z,0
2016-09-06T03:54:10.174Z,0
2016-09-06T03:55:10.155Z,0
2016-09-06T03:56:10.130Z,0
2016-09-06T03:57:10.116Z,0
2016-09-06T03:58:10.085Z,0
2016-09-06T03:59:10.063Z,0
2016-09-06T04:00:10.053Z,0
2016-09-06T04:01:10.016Z,0
2016-09-06T04:02:09.994Z,0
2016-09-06T04:03:09.972Z,0
2016-09-06T04:04:09.954Z,0
2016-09-06T04:05:09.927Z,0
2016-09-06T04:06:09.901Z,0
2016-09-06T04:07:09.887Z,0
2016-09-06T04:08:09.857Z,0
2016-09-06T04:09:09.843Z,0
2016-09-06T04:10:09.812Z,0
2016-09-06T04:11:09.782Z,0
2016-09-06T04:12:09.761Z,0
2016-09-06T04:13:09.736Z,0
2016-09-06T04:14:09.722Z,0
2016-09-06T04:15:09.693Z,0
2016-09-06T04:16:09.675Z,0
2016-09-06T04:17:09.645Z,0
2016-09-06T04:18:09.625Z,0
2016-09-06T04:19:09.600Z,0
2016-09-06T04:20:09.583Z,0
2016-09-06T04:21:09.553Z,0
2016-09-06T04:22:09.535Z,0
2016-09-06T04:23:09.509Z,0
2016-09-06T04:24:09.489Z,0
2016-09-06T04:25:09.461Z,0
2016-09-06T04:26:09.446Z,0
2016-09-06T04:27:09.418Z,0
2016-09-06T04:28:09.397Z,0
2016-09-06T04:29:09.750Z,0
2016-09-06T04:30:09.352Z,0
2016-09-06T04:31:09.327Z,0
2016-09-06T04:32:09.305Z,0
2016-09-06T04:33:09.287Z,0
2016-09-06T04:34:09.259Z,0
2016-09-06T04:35:09.236Z,0
2016-09-06T04:36:09.222Z,0
2016-09-06T04:37:09.191Z,0
2016-09-06T04:38:09.167Z,0
2016-09-06T04:39:09.146Z,5
2016-09-06T04:40:09.131Z,5
2016-09-06T04:41:09.099Z,5
2016-09-06T04:42:09.075Z,5
2016-09-06T04:43:09.056Z,5
2016-09-06T04:44:09.029Z,10
2016-09-06T04:45:09.006Z,10
2016-09-06T04:46:08.981Z,10
2016-09-06T04:47:08.967Z,10
2016-09-06T04:48:08.932Z,15
2016-09-06T04:49:08.916Z,15
2016-09-06T04:50:08.887Z,15
2016-09-06T04:51:08.869Z,20
2016-09-06T04:52:08.841Z,20
2016-09-06T04:53:08.823Z,25
2016-09-06T04:54:08.799Z,25
2016-09-06T04:55:08.783Z,25
2016-09-06T04:56:08.749Z,30
2016-09-06T04:57:08.732Z,30
2016-09-06T04:58:08.702Z,35
2016-09-06T04:59:08.688Z,35
2016-09-06T05:00:08.968Z,40
2016-09-06T05:01:08.640Z,40
2016-09-06T05:02:08.705Z,45
2016-09-06T05:03:08.594Z,50
2016-09-06T05:04:08.576Z,50
2016-09-06T05:05:08.562Z,55
2016-09-06T05:06:08.521Z,55
2016-09-06T05:07:08.523Z,60
2016-09-06T05:08:08.474Z,65
2016-09-06T05:09:08.457Z,65
2016-09-06T05:10:08.429Z,70
2016-09-06T05:11:08.412Z,75
2016-09-06T05:12:08.387Z,75
2016-09-06T05:13:08.367Z,80
2016-09-06T05:14:08.343Z,85
2016-09-06T05:15:08.335Z,90
2016-09-06T05:16:08.299Z,90
2016-09-06T05:17:08.276Z,95
2016-09-06T05:18:08.253Z,100
2016-09-06T05:19:08.226Z,100
2016-09-06T05:20:08.208Z,105
2016-09-06T05:21:08.180Z,110
2016-09-06T05:22:08.161Z,115
2016-09-06T05:23:08.134Z,115
2016-09-06T05:24:08.116Z,120
2016-09-06T05:25:08.091Z,125
2016-09-06T05:26:08.076Z,130
2016-09-06T05:27:08.050Z,130
2016-09-06T05:28:08.025Z,135
2016-09-06T05:29:08.008Z,140
2016-09-06T05:30:07.986Z,140
2016-09-06T05:31:07.963Z,145
2016-09-06T05:32:07.935Z,150
2016-09-06T05:33:07.921Z,155
2016-09-06T05:34:07.891Z,155
2016-09-06T05:35:07.868Z,155
2016-09-06T05:36:08.142Z,160
2016-09-06T05:37:07.824Z,160
2016-09-06T05:38:07.799Z,165
2016-09-06T05:39:07.777Z,170
2016-09-06T05:40:07.766Z,175
2016-09-06T05:41:07.731Z,175
2016-09-06T05:42:07.712Z,180
2016-09-06T05:43:07.682Z,180
2016-09-06T05:44:07.668Z,185
2016-09-06T05:45:07.640Z,190
2016-09-06T05:46:07.627Z,190
2016-09-06T05:47:07.598Z,195
2016-09-06T05:48:07.581Z,195
2016-09-06T05:49:07.560Z,200
2016-09-06T05:50:07.541Z,205
2016-09-06T05:51:07.516Z,205
2016-09-06T05:52:07.490Z,210
2016-09-06T05:53:07.466Z,215
2016-09-06T05:54:07.444Z,215
2016-09-06T05:55:07.423Z,220
2016-09-06T05:56:07.399Z,220
2016-09-06T05:57:07.677Z,225
2016-09-06T05:58:07.353Z,230
2016-09-06T05:59:07.351Z,230
2016-09-06T06:00:07.312Z,235
2016-09-06T06:01:07.292Z,235
2016-09-06T06:02:07.274Z,240
2016-09-06T06:03:07.249Z,245
2016-09-06T06:04:07.231Z,245
2016-09-06T06:05:07.206Z,250
2016-09-06T06:06:07.183Z,250
2016-09-06T06:07:07.163Z,255
2016-09-06T06:08:07.137Z,255
2016-09-06T06:09:07.120Z,260
2016-09-06T06:10:07.098Z,265
2016-09-06T06:11:07.070Z,265
2016-09-06T06:12:07.055Z,270
2016-09-06T06:13:07.325Z,270
2016-09-06T06:14:07.010Z,275
2016-09-06T06:15:06.985Z,275
2016-09-06T06:16:06.972Z,280
2016-09-06T06:17:06.941Z,280
2016-09-06T06:18:06.925Z,285
2016-09-06T06:19:06.903Z,285
2016-09-06T06:20:06.883Z,290
2016-09-06T06:21:06.856Z,290
2016-09-06T06:22:06.838Z,295
2016-09-06T06:23:06.822Z,295
2016-09-06T06:24:06.797Z,295
2016-09-06T06:25:06.790Z,300
2016-09-06T06:26:06.747Z,300
2016-09-06T06:27:06.735Z,300
2016-09-06T06:28:06.707Z,305
2016-09-06T06:29:06.689Z,305
2016-09-06T06:30:06.665Z,310
2016-09-06T06:31:06.666Z,310
2016-09-06T06:32:06.622Z,315
2016-09-06T06:33:06.611Z,320
2016-09-06T06:34:06.584Z,315
2016-09-06T06:35:06.881Z,315
2016-09-06T06:36:06.541Z,320
2016-09-06T06:37:06.522Z,325
2016-09-06T06:38:06.513Z,320
2016-09-06T06:39:06.491Z,325
2016-09-06T06:40:06.460Z,325
2016-09-06T06:41:06.432Z,325
2016-09-06T06:42:06.418Z,335
2016-09-06T06:43:06.391Z,330
2016-09-06T06:44:06.377Z,330
2016-09-06T06:45:06.354Z,335
2016-09-06T06:46:06.349Z,335
2016-09-06T06:47:06.315Z,335
2016-09-06T06:48:06.293Z,340
2016-09-06T06:49:06.276Z,340
2016-09-06T06:50:06.255Z,345
2016-09-06T06:51:06.235Z,345
2016-09-06T06:52:06.233Z,350
2016-09-06T06:53:06.199Z,350
2016-09-06T06:54:06.166Z,350
2016-09-06T06:55:06.165Z,355
2016-09-06T06:56:06.128Z,355
2016-09-06T06:57:06.112Z,355
2016-09-06T06:58:06.093Z,360
2016-09-06T06:59:06.068Z,365
2016-09-06T07:00:06.051Z,365
2016-09-06T07:01:06.031Z,370
2016-09-06T07:02:06.389Z,370
2016-09-06T07:03:05.985Z,370
2016-09-06T07:04:05.967Z,375
2016-09-06T07:05:05.949Z,375
2016-09-06T07:06:05.924Z,380
2016-09-06T07:07:05.908Z,380
2016-09-06T07:08:05.886Z,385
2016-09-06T07:09:05.882Z,385
2016-09-06T07:10:05.846Z,385
2016-09-06T07:11:05.829Z,390
2016-09-06T07:12:05.811Z,395
2016-09-06T07:13:05.790Z,390
2016-09-06T07:14:05.765Z,395
2016-09-06T07:15:06.151Z,395
2016-09-06T07:16:05.729Z,395
2016-09-06T07:17:05.800Z,395
2016-09-06T07:18:05.709Z,400
2016-09-06T07:19:05.669Z,400
2016-09-06T07:20:05.649Z,400
2016-09-06T07:21:05.627Z,400
2016-09-06T07:22:05.607Z,400
2016-09-06T07:23:05.895Z,400
2016-09-06T07:24:05.571Z,400
2016-09-06T07:25:05.553Z,400
2016-09-06T07:26:06.015Z,405
2016-09-06T07:27:05.514Z,405
2016-09-06T07:28:05.489Z,405
2016-09-06T07:29:05.476Z,405
2016-09-06T07:30:05.465Z,405
2016-09-06T07:31:05.437Z,405
2016-09-06T07:32:05.414Z,415
2016-09-06T07:33:05.399Z,410
2016-09-06T07:34:05.379Z,410
2016-09-06T07:35:05.361Z,410
2016-09-06T07:36:05.345Z,415
2016-09-06T07:37:05.319Z,415
2016-09-06T07:38:05.301Z,415
2016-09-06T07:39:05.284Z,415
2016-09-06T07:40:05.270Z,415
2016-09-06T07:41:05.250Z,420
2016-09-06T07:42:05.224Z,420
2016-09-06T07:43:05.213Z,420
2016-09-06T07:44:05.187Z,420
2016-09-06T07:45:05.170Z,425
2016-09-06T07:46:05.156Z,425
2016-09-06T07:47:05.127Z,425
2016-09-06T07:48:05.111Z,425
2016-09-06T07:49:05.091Z,430
2016-09-06T07:50:05.075Z,425
2016-09-06T07:51:05.056Z,425
2016-09-06T07:52:05.038Z,425
2016-09-06T07:53:05.017Z,425
2016-09-06T07:54:05.001Z,425
2016-09-06T07:55:04.984Z,425
2016-09-06T07:56:04.976Z,425
2016-09-06T07:57:04.946Z,425
2016-09-06T07:58:04.926Z,425
2016-09-06T07:59:04.910Z,425
2016-09-06T08:00:04.903Z,425
2016-09-06T08:01:04.871Z,425
2016-09-06T08:02:04.848Z,425
2016-09-06T08:03:04.835Z,425
2016-09-06T08:04:04.811Z,425
2016-09-06T08:05:04.802Z,430
2016-09-06T08:06:04.787Z,430
2016-09-06T08:07:04.760Z,430
2016-09-06T08:08:04.743Z,435
2016-09-06T08:09:04.719Z,435
2016-09-06T08:10:04.705Z,435
2016-09-06T08:11:04.688Z,435
2016-09-06T08:12:04.679Z,435
2016-09-06T08:13:04.652Z,435
2016-09-06T08:14:04.635Z,435
2016-09-06T08:15:04.622Z,430
2016-09-06T08:16:04.648Z,430
2016-09-06T08:17:04.580Z,430
2016-09-06T08:18:04.563Z,430
2016-09-06T08:19:04.542Z,430
2016-09-06T08:20:04.832Z,425
2016-09-06T08:21:04.510Z,430
2016-09-06T08:22:04.802Z,425
2016-09-06T08:23:04.482Z,430
2016-09-06T08:24:04.454Z,425
2016-09-06T08:25:04.550Z,425
2016-09-06T08:26:04.419Z,425
2016-09-06T08:27:04.418Z,425
2016-09-06T08:28:04.392Z,425
2016-09-06T08:29:04.370Z,430
2016-09-06T08:30:04.351Z,430
2016-09-06T08:31:04.334Z,430
2016-09-06T08:32:04.316Z,435
2016-09-06T08:33:04.302Z,435
2016-09-06T08:34:04.280Z,435
2016-09-06T08:35:04.263Z,435
2016-09-06T08:36:04.249Z,440
2016-09-06T08:37:04.227Z,440
2016-09-06T08:38:04.211Z,440
2016-09-06T08:39:04.492Z,440
2016-09-06T08:40:04.177Z,440
2016-09-06T08:41:04.154Z,440
2016-09-06T08:42:04.144Z,440
2016-09-06T08:43:04.122Z,440
2016-09-06T08:44:04.114Z,440
2016-09-06T08:45:04.090Z,445
2016-09-06T08:46:04.074Z,445
2016-09-06T08:47:04.083Z,445
2016-09-06T08:48:04.040Z,450
2016-09-06T08:49:04.020Z,450
2016-09-06T08:50:04.021Z,450
2016-09-06T08:51:03.989Z,450
2016-09-06T08:52:03.966Z,450
2016-09-06T08:53:03.953Z,450
2016-09-06T08:54:03.933Z,450
2016-09-06T08:55:03.920Z,450
2016-09-06T08:56:03.898Z,455
2016-09-06T08:57:03.886Z,460
2016-09-06T08:58:03.873Z,460
2016-09-06T08:59:04.367Z,465
2016-09-06T09:00:04.135Z,460
2016-09-06T09:01:03.823Z,460
2016-09-06T09:02:03.799Z,465
2016-09-06T09:03:03.785Z,465
2016-09-06T09:04:03.930Z,460
2016-09-06T09:05:03.748Z,455
2016-09-06T09:06:03.738Z,455
2016-09-06T09:07:03.715Z,455
2016-09-06T09:08:03.700Z,460
2016-09-06T09:09:03.689Z,465
2016-09-06T09:10:03.665Z,470
2016-09-06T09:11:03.657Z,470
2016-09-06T09:12:03.633Z,470
2016-09-06T09:13:03.621Z,465
2016-09-06T09:14:03.608Z,465
2016-09-06T09:15:03.587Z,470
2016-09-06T09:16:03.570Z,475
2016-09-06T09:17:03.553Z,475
2016-09-06T09:18:03.531Z,475
2016-09-06T09:19:03.536Z,470
2016-09-06T09:20:03.499Z,465
2016-09-06T09:21:03.810Z,460
2016-09-06T09:22:03.466Z,460
2016-09-06T09:23:03.458Z,460
2016-09-06T09:24:03.435Z,455
2016-09-06T09:25:03.424Z,455
2016-09-06T09:26:03.402Z,455
2016-09-06T09:27:03.390Z,455
2016-09-06T09:28:03.375Z,450
2016-09-06T09:29:03.358Z,450
2016-09-06T09:30:03.355Z,450
2016-09-06T09:31:03.886Z,450
2016-09-06T09:32:03.311Z,455
2016-09-06T09:33:03.295Z,450
2016-09-06T09:34:03.278Z,450
2016-09-06T09:35:03.268Z,445
2016-09-06T09:36:03.245Z,445
2016-09-06T09:37:03.225Z,445
2016-09-06T09:38:03.214Z,445
2016-09-06T09:39:03.193Z,445
2016-09-06T09:40:03.182Z,445
2016-09-06T09:41:03.167Z,445
2016-09-06T09:42:03.158Z,445
2016-09-06T09:43:03.135Z,445
2016-09-06T09:44:03.122Z,440
2016-09-06T09:45:03.105Z,445
2016-09-06T09:46:03.082Z,450
2016-09-06T09:47:03.078Z,450
2016-09-06T09:48:03.070Z,455
2016-09-06T09:49:04.333Z,465
2016-09-06T09:50:03.026Z,465
2016-09-06T09:51:03.007Z,475
2016-09-06T09:52:02.995Z,470
2016-09-06T09:53:02.977Z,470
2016-09-06T09:54:02.962Z,470
2016-09-06T09:55:02.943Z,465
2016-09-06T09:56:02.934Z,465
2016-09-06T09:57:02.916Z,465
2016-09-06T09:58:02.909Z,460
2016-09-06T09:59:02.884Z,455
2016-09-06T10:00:02.864Z,455
2016-09-06T10:01:02.854Z,455
2016-09-06T10:02:02.836Z,455
2016-09-06T10:03:02.821Z,455
2016-09-06T10:04:02.807Z,450
2016-09-06T10:05:02.783Z,450
2016-09-06T10:06:02.775Z,445
2016-09-06T10:07:02.754Z,450
2016-09-06T10:08:02.743Z,450
2016-09-06T10:09:02.721Z,450
2016-09-06T10:10:02.711Z,460
2016-09-06T10:11:02.696Z,460
2016-09-06T10:12:02.681Z,465
2016-09-06T10:13:02.663Z,475
2016-09-06T10:14:02.647Z,475
2016-09-06T10:15:02.632Z,470
2016-09-06T10:16:02.620Z,470
2016-09-06T10:17:02.603Z,460
2016-09-06T10:18:02.884Z,460
2016-09-06T10:19:02.572Z,460
2016-09-06T10:20:02.557Z,460
2016-09-06T10:21:02.537Z,460
2016-09-06T10:22:02.542Z,460
2016-09-06T10:23:02.506Z,460
2016-09-06T10:24:02.495Z,460
2016-09-06T10:25:02.477Z,460
2016-09-06T10:26:02.470Z,465
2016-09-06T10:27:02.450Z,470
2016-09-06T10:28:02.434Z,475
2016-09-06T10:29:02.419Z,485
2016-09-06T10:30:02.410Z,485
2016-09-06T10:31:02.398Z,490
2016-09-06T10:32:02.374Z,495
2016-09-06T10:33:02.358Z,495
2016-09-06T10:34:02.350Z,500
2016-09-06T10:35:02.327Z,510
2016-09-06T10:36:02.313Z,510
2016-09-06T10:37:02.300Z,510
2016-09-06T10:38:02.285Z,505
2016-09-06T10:39:02.272Z,500
2016-09-06T10:40:02.251Z,495
2016-09-06T10:41:02.241Z,500
2016-09-06T10:42:02.222Z,505
2016-09-06T10:43:02.216Z,515
2016-09-06T10:44:02.195Z,525
2016-09-06T10:45:02.184Z,525
2016-09-06T10:46:02.164Z,525
2016-09-06T10:47:02.151Z,530
2016-09-06T10:48:02.147Z,530
2016-09-06T10:49:02.125Z,535
2016-09-06T10:50:02.108Z,535
2016-09-06T10:51:02.101Z,525
2016-09-06T10:52:02.387Z,510
2016-09-06T10:53:02.067Z,500
2016-09-06T10:54:02.053Z,495
2016-09-06T10:55:02.043Z,500
2016-09-06T10:56:02.021Z,505
2016-09-06T10:57:02.016Z,520
2016-09-06T10:58:01.992Z,545
2016-09-06T10:59:01.982Z,570
2016-09-06T11:00:01.969Z,590
2016-09-06T11:01:01.952Z,590
2016-09-06T11:02:01.935Z,590
2016-09-06T11:03:01.923Z,580
2016-09-06T11:04:01.909Z,570
2016-09-06T11:05:01.895Z,555
2016-09-06T11:06:01.877Z,550
2016-09-06T11:07:01.877Z,550
2016-09-06T11:08:01.856Z,570
2016-09-06T11:09:01.837Z,570
2016-09-06T11:10:01.823Z,560
2016-09-06T11:11:01.808Z,540
2016-09-06T11:12:01.800Z,540
2016-09-06T11:13:01.784Z,545
2016-09-06T11:14:01.770Z,565
2016-09-06T11:15:01.750Z,575
2016-09-06T11:16:01.740Z,575
2016-09-06T11:17:01.721Z,585
2016-09-06T11:18:01.712Z,600
2016-09-06T11:19:01.696Z,600
2016-09-06T11:20:01.689Z,605
2016-09-06T11:21:01.672Z,610
2016-09-06T11:22:01.658Z,605
2016-09-06T11:23:01.645Z,615
2016-09-06T11:24:01.643Z,625
2016-09-06T11:25:01.624Z,605
2016-09-06T11:26:01.603Z,630
2016-09-06T11:27:01.589Z,640
2016-09-06T11:28:01.583Z,635
2016-09-06T11:29:01.565Z,615
2016-09-06T11:30:01.549Z,595
2016-09-06T11:31:01.535Z,600
2016-09-06T11:32:01.518Z,610
2016-09-06T11:33:01.518Z,615
2016-09-06T11:34:01.492Z,595
2016-09-06T11:35:01.489Z,605
2016-09-06T11:36:01.466Z,565
2016-09-06T11:37:01.458Z,560
2016-09-06T11:38:01.446Z,595
2016-09-06T11:39:01.428Z,630
2016-09-06T11:40:01.422Z,695
2016-09-06T11:41:01.404Z,725
2016-09-06T11:42:01.393Z,760
2016-09-06T11:43:01.377Z,775
2016-09-06T11:44:01.364Z,755
2016-09-06T11:45:01.687Z,720
2016-09-06T11:46:01.661Z,675
2016-09-06T11:47:01.330Z,625
2016-09-06T11:48:01.310Z,585
2016-09-06T11:49:01.306Z,555
2016-09-06T11:50:01.285Z,540
2016-09-06T11:51:01.271Z,535
2016-09-06T11:52:01.260Z,540
2016-09-06T11:53:01.249Z,555
2016-09-06T11:54:01.263Z,555
2016-09-06T11:55:01.221Z,555
2016-09-06T11:56:01.208Z,550
2016-09-06T11:57:01.191Z,550
2016-09-06T11:58:01.184Z,545
2016-09-06T11:59:01.165Z,555
2016-09-06T12:00:01.158Z,560
2016-09-06T12:01:01.139Z,565
2016-09-06T12:02:01.136Z,570
2016-09-06T12:03:01.113Z,575
2016-09-06T12:04:01.112Z,570
2016-09-06T12:05:01.100Z,570
2016-09-06T12:06:01.080Z,585
2016-09-06T12:07:01.064Z,580
2016-09-06T12:08:01.051Z,600
2016-09-06T12:09:01.041Z,605
2016-09-06T12:10:01.020Z,620
2016-09-06T12:11:01.016Z,635
2016-09-06T12:12:01.297Z,635
2016-09-06T12:13:00.993Z,645
2016-09-06T12:14:00.969Z,630
2016-09-06T12:15:00.961Z,620
2016-09-06T12:16:00.950Z,615
2016-09-06T12:17:00.936Z,620
2016-09-06T12:18:00.929Z,615
2016-09-06T12:19:00.909Z,615
2016-09-06T12:20:00.894Z,615
2016-09-06T12:21:00.883Z,615
2016-09-06T12:22:00.876Z,610
2016-09-06T12:23:00.855Z,605
2016-09-06T12:24:00.845Z,610
2016-09-06T12:25:00.826Z,600
2016-09-06T12:26:00.821Z,605
2016-09-06T12:27:00.917Z,620
2016-09-06T12:28:00.796Z,635
2016-09-06T12:29:00.777Z,635
2016-09-06T12:30:00.770Z,615
2016-09-06T12:31:00.762Z,585
2016-09-06T12:32:00.748Z,570
2016-09-06T12:33:00.737Z,570
2016-09-06T12:34:00.727Z,565
2016-09-06T12:35:00.706Z,565
2016-09-06T12:36:00.693Z,570
2016-09-06T12:37:00.679Z,565
2016-09-06T12:38:00.669Z,560
2016-09-06T12:39:00.661Z,550
2016-09-06T12:40:00.641Z,540
2016-09-06T12:41:00.632Z,530
2016-09-06T12:42:00.615Z,530
2016-09-06T12:43:00.606Z,525
2016-09-06T12:44:00.587Z,520
2016-09-06T12:45:00.582Z,520
2016-09-06T12:46:00.566Z,515
2016-09-06T12:47:00.561Z,510
2016-09-06T12:48:00.587Z,510
2016-09-06T12:49:00.535Z,515
2016-09-06T12:50:00.518Z,520
2016-09-06T12:51:00.514Z,510
2016-09-06T12:52:00.491Z,495
2016-09-06T12:53:00.482Z,490
2016-09-06T12:54:00.466Z,510
2016-09-06T12:55:00.456Z,490
2016-09-06T12:56:00.455Z,510
2016-09-06T12:57:00.430Z,515
2016-09-06T12:58:00.417Z,510
2016-09-06T12:59:00.756Z,520
2016-09-06T13:00:00.402Z,525
2016-09-06T13:01:00.379Z,530
2016-09-06T13:02:00.370Z,535
2016-09-06T13:03:00.350Z,535
2016-09-06T13:04:00.340Z,535
2016-09-06T13:05:00.629Z,525
2016-09-06T13:06:00.314Z,520
2016-09-06T13:07:00.305Z,515
2016-09-06T13:08:00.294Z,515
2016-09-06T13:09:00.280Z,515
2016-09-06T13:10:00.269Z,515
2016-09-06T13:11:00.286Z,515
2016-09-06T13:12:00.275Z,510
2016-09-06T13:13:00.333Z,505
2016-09-06T13:14:00.216Z,500
2016-09-06T13:15:00.204Z,505
2016-09-06T13:16:00.193Z,505
2016-09-06T13:17:00.179Z,505
2016-09-06T13:18:00.162Z,500
2016-09-06T13:19:00.163Z,500
2016-09-06T13:20:00.147Z,500
2016-09-06T13:21:00.120Z,505
2016-09-06T13:22:00.113Z,505
2016-09-06T13:23:00.099Z,505
2016-09-06T13:24:00.383Z,505
2016-09-06T13:25:00.081Z,505
2016-09-06T13:26:00.063Z,505
2016-09-06T13:27:00.044Z,505
2016-09-06T13:28:00.038Z,505
2016-09-06T13:29:00.016Z,500
2016-09-06T13:30:00.005Z,495
2016-09-06T13:30:59.990Z,490
2016-09-06T13:31:59.987Z,490
2016-09-06T13:32:59.967Z,480
2016-09-06T13:33:59.961Z,480
2016-09-06T13:34:59.938Z,480
2016-09-06T13:35:59.933Z,485
2016-09-06T13:36:59.925Z,485
2016-09-06T13:37:59.902Z,485
2016-09-06T13:38:59.890Z,490
2016-09-06T13:39:59.876Z,485
2016-09-06T13:40:59.871Z,485
2016-09-06T13:41:59.852Z,485
2016-09-06T13:42:59.846Z,480
2016-09-06T13:44:00.182Z,480
2016-09-06T13:44:59.814Z,480
2016-09-06T13:45:59.800Z,475
2016-09-06T13:46:59.782Z,475
2016-09-06T13:47:59.776Z,475
2016-09-06T13:48:59.759Z,475
2016-09-06T13:49:59.750Z,480
2016-09-06T13:50:59.737Z,475
2016-09-06T13:52:00.075Z,470
2016-09-06T13:52:59.732Z,470
2016-09-06T13:53:59.696Z,470
2016-09-06T13:54:59.686Z,470
2016-09-06T13:55:59.675Z,470
2016-09-06T13:56:59.656Z,465
2016-09-06T13:57:59.650Z,465
2016-09-06T13:58:59.630Z,465
2016-09-06T13:59:59.623Z,465
2016-09-06T14:00:59.610Z,465
2016-09-06T14:01:59.599Z,465
2016-09-06T14:02:59.586Z,465
2016-09-06T14:03:59.568Z,465
2016-09-06T14:04:59.559Z,470
2016-09-06T14:05:59.559Z,470